Terminal Aerodrome Forecast
Issued by NWS

Home | Current Version | Previous Version | Graphics & Text | Print | Product List | Glossary On
Versions: 1 2 3 4 5 6 7 8 9 10 11 12 13 14 15 16 17 18 19
000
FTUS43 KFGF 231017 AAB
TAFBJI
TAF AMD
KBJI 231017Z 2310/2406 21010KT P6SM -RA OVC070
      TEMPO 2310/2311 4SM TSRA OVC030CB
     FM231100 17011KT P6SM OVC035
     FM231300 17011KT P6SM SHRA OVC035
     FM231700 20009KT P6SM SHRA BKN040
     FM231900 21008KT P6SM VCSH BKN045
     FM240000 24007KT P6SM VCSH SCT200
     FM240400 23004KT P6SM SCT250=

USA.gov is the U.S. government's official web portal to all federal, state and local government web resources and services.